< < Back
Terminal Aerodrome Forecast


Current Version              Previous Versions:   1  2  3  4  5  6  7  8  9  

Terminal Aerodrome Forecast

327
FTUS42 KJAX 231120
TAFSSI
TAF
KSSI 231120Z 2312/2412 26005KT P6SM FEW250
     FM231700 14010KT P6SM FEW250
     FM240200 19006KT P6SM FEW250=

Latest METAR

585
SAUS70 KWBC 231500 RRK
MTRSSI
METAR KSSI 231453Z AUTO 23009KT 10SM CLR 31/22 A3005 RMK AO2 SLP178
T03060222 51008


USA.gov is the U.S. government's official web portal to all federal, state and local government web resources and services.